Time,TemperatureF,DewpointF,PressureIn,WindDirection,WindDirectionDegrees,WindSpeedMPH,WindSpeedGustMPH,Humidity,HourlyPrecipIn,Conditions,Clouds,dailyrainin,SoftwareType,DateUTC
2013-04-01 00:00:00,43.2,32.6,29.71,SSW,198,4.0,5.0,66,0.00,,,0.04,Wunderground v.1.15,2013-04-01 04:00:00,
2013-04-01 00:05:00,42.9,31.9,29.72,WNW,297,5.0,5.0,65,0.00,,,0.00,Wunderground v.1.15,2013-04-01 04:05:00,
2013-04-01 00:10:00,42.4,31.1,29.72,WNW,284,4.0,4.0,64,0.00,,,0.00,Wunderground v.1.15,2013-04-01 04:10:00,
2013-04-01 00:15:00,41.9,30.2,29.72,West,262,4.0,6.0,63,0.00,,,0.00,Wunderground v.1.15,2013-04-01 04:15:00,
2013-04-01 00:20:00,41.5,29.8,29.72,WNW,285,5.0,5.0,63,0.00,,,0.00,Wunderground v.1.15,2013-04-01 04:20:00,
2013-04-01 00:25:00,41.0,29.0,29.72,NNE,16,5.0,8.0,62,0.00,,,0.00,Wunderground v.1.15,2013-04-01 04:25:00,
2013-04-01 00:30:00,40.6,28.6,29.73,WNW,299,5.0,6.0,62,0.00,,,0.00,Wunderground v.1.15,2013-04-01 04:30:00,
2013-04-01 00:35:00,40.3,28.3,29.73,West,278,5.0,6.0,62,0.00,,,0.00,Wunderground v.1.15,2013-04-01 04:35:00,
2013-04-01 00:40:00,40.0,28.4,29.73,NW,308,5.0,5.0,63,0.00,,,0.00,Wunderground v.1.15,2013-04-01 04:40:00,
2013-04-01 00:50:00,39.4,28.2,29.73,West,271,4.0,4.0,64,0.00,,,0.00,Wunderground v.1.15,2013-04-01 04:50:00,
2013-04-01 00:55:00,39.2,28.0,29.73,NW,308,3.0,4.0,64,0.00,,,0.00,Wunderground v.1.15,2013-04-01 04:55:00,
2013-04-01 01:00:00,39.1,28.3,29.73,WNW,287,3.0,3.0,65,0.00,,,0.00,Wunderground v.1.15,2013-04-01 05:00:00,
2013-04-01 01:05:00,38.9,28.5,29.73,WNW,298,4.0,4.0,66,0.00,,,0.00,Wunderground v.1.15,2013-04-01 05:05:00,
2013-04-01 01:10:00,38.8,28.4,29.73,NW,311,4.0,5.0,66,0.00,,,0.00,Wunderground v.1.15,2013-04-01 05:10:00,
2013-04-01 01:20:00,38.3,28.7,29.73,West,273,3.0,4.0,68,0.00,,,0.00,Wunderground v.1.15,2013-04-01 05:20:00,
2013-04-01 01:25:00,38.3,28.7,29.73,WNW,300,3.0,4.0,68,0.00,,,0.00,Wunderground v.1.15,2013-04-01 05:25:00,
2013-04-01 01:30:00,38.2,28.6,29.73,WNW,298,3.0,4.0,68,0.00,,,0.00,Wunderground v.1.15,2013-04-01 05:30:00,
2013-04-01 01:40:00,38.0,28.4,29.73,SW,231,3.0,3.0,68,0.00,,,0.00,Wunderground v.1.15,2013-04-01 05:40:00,
2013-04-01 01:45:00,37.9,28.3,29.74,WNW,294,3.0,3.0,68,0.00,,,0.00,Wunderground v.1.15,2013-04-01 05:45:00,
2013-04-01 01:50:00,37.8,28.5,29.73,WNW,291,3.0,3.0,69,0.00,,,0.00,Wunderground v.1.15,2013-04-01 05:50:00,
2013-04-01 01:55:00,37.7,28.4,29.74,NW,325,3.0,4.0,69,0.00,,,0.00,Wunderground v.1.15,2013-04-01 05:55:00,
2013-04-01 02:00:00,37.9,28.6,29.74,WNW,297,4.0,4.0,69,0.00,,,0.00,Wunderground v.1.15,2013-04-01 06:00:00,
2013-04-01 02:10:00,37.5,28.6,29.74,West,280,3.0,3.0,70,0.00,,,0.00,Wunderground v.1.15,2013-04-01 06:10:00,
2013-04-01 02:15:00,37.3,28.4,29.74,West,280,3.0,3.0,70,0.00,,,0.00,Wunderground v.1.15,2013-04-01 06:15:00,
2013-04-01 02:20:00,37.1,28.6,29.74,West,271,2.0,2.0,71,0.00,,,0.00,Wunderground v.1.15,2013-04-01 06:20:00,
2013-04-01 02:25:00,37.1,28.6,29.74,West,273,3.0,3.0,71,0.00,,,0.00,Wunderground v.1.15,2013-04-01 06:25:00,
2013-04-01 02:30:00,37.1,28.6,29.75,NNE,15,3.0,5.0,71,0.00,,,0.00,Wunderground v.1.15,2013-04-01 06:30:00,
2013-04-01 02:40:00,35.2,26.7,29.76,North,5,7.0,9.0,71,0.00,,,0.00,Wunderground v.1.15,2013-04-01 06:40:00,
2013-04-01 02:45:00,34.5,26.4,29.77,NNW,345,7.0,10.0,72,0.00,,,0.00,Wunderground v.1.15,2013-04-01 06:45:00,
2013-04-01 02:50:00,34.0,26.3,29.77,NNE,19,7.0,7.0,73,0.00,,,0.00,Wunderground v.1.15,2013-04-01 06:50:00,
2013-04-01 02:55:00,33.9,26.5,29.78,NE,41,6.0,7.0,74,0.00,,,0.00,Wunderground v.1.15,2013-04-01 06:55:00,
2013-04-01 03:00:00,33.7,26.3,29.78,NNW,347,4.0,8.0,74,0.00,,,0.00,Wunderground v.1.15,2013-04-01 07:00:00,
2013-04-01 03:10:00,33.2,26.5,29.78,NW,319,6.0,8.0,76,0.00,,,0.00,Wunderground v.1.15,2013-04-01 07:10:00,
2013-04-01 03:15:00,33.1,26.4,29.79,NW,307,5.0,8.0,76,0.00,,,0.00,Wunderground v.1.15,2013-04-01 07:15:00,
2013-04-01 03:20:00,33.0,26.6,29.79,WNW,302,4.0,4.0,77,0.00,,,0.00,Wunderground v.1.15,2013-04-01 07:20:00,
2013-04-01 03:25:00,32.9,26.5,29.80,NW,305,4.0,4.0,77,0.00,,,0.00,Wunderground v.1.15,2013-04-01 07:25:00,
2013-04-01 03:30:00,33.0,26.6,29.80,NW,326,4.0,4.0,77,0.00,,,0.00,Wunderground v.1.15,2013-04-01 07:30:00,
2013-04-01 03:40:00,33.3,25.9,29.80,WNW,295,4.0,5.0,74,0.00,,,0.00,Wunderground v.1.15,2013-04-01 07:40:00,
2013-04-01 03:45:00,33.4,26.0,29.80,WNW,297,5.0,5.0,74,0.00,,,0.00,Wunderground v.1.15,2013-04-01 07:45:00,
2013-04-01 03:50:00,33.4,25.7,29.80,NNW,335,4.0,13.0,73,0.00,,,0.00,Wunderground v.1.15,2013-04-01 07:50:00,
2013-04-01 03:55:00,33.5,25.8,29.80,NNE,27,5.0,13.0,73,0.00,,,0.00,Wunderground v.1.15,2013-04-01 07:55:00,
2013-04-01 04:00:00,33.5,25.4,29.81,NW,320,6.0,7.0,72,0.00,,,0.00,Wunderground v.1.15,2013-04-01 08:00:00,
2013-04-01 04:10:00,33.2,23.8,29.81,NW,304,7.0,7.0,68,0.00,,,0.00,Wunderground v.1.15,2013-04-01 08:10:00,
2013-04-01 04:15:00,33.1,23.3,29.81,West,280,5.0,7.0,67,0.00,,,0.00,Wunderground v.1.15,2013-04-01 08:15:00,
2013-04-01 04:20:00,32.9,23.1,29.81,NW,321,5.0,5.0,67,0.00,,,0.00,Wunderground v.1.15,2013-04-01 08:20:00,
2013-04-01 04:25:00,32.9,23.1,29.82,West,277,4.0,5.0,67,0.00,,,0.00,Wunderground v.1.15,2013-04-01 08:25:00,
2013-04-01 04:35:00,32.7,22.9,29.82,North,358,3.0,4.0,67,0.00,,,0.00,Wunderground v.1.15,2013-04-01 08:35:00,
2013-04-01 04:40:00,32.5,23.1,29.82,WNW,297,3.0,5.0,68,0.00,,,0.00,Wunderground v.1.15,2013-04-01 08:40:00,
2013-04-01 04:45:00,32.4,23.0,29.83,NNW,327,4.0,5.0,68,0.00,,,0.00,Wunderground v.1.15,2013-04-01 08:45:00,
2013-04-01 04:50:00,32.2,23.2,29.83,WSW,256,4.0,4.0,69,0.00,,,0.00,Wunderground v.1.15,2013-04-01 08:50:00,
2013-04-01 04:55:00,32.0,23.3,29.83,NNW,329,3.0,4.0,70,0.00,,,0.00,Wunderground v.1.15,2013-04-01 08:55:00,
2013-04-01 05:05:00,31.6,23.3,29.84,WNW,294,3.0,4.0,71,0.00,,,0.00,Wunderground v.1.15,2013-04-01 09:05:00,
2013-04-01 05:10:00,31.4,23.4,29.84,NNW,329,3.0,3.0,72,0.00,,,0.00,Wunderground v.1.15,2013-04-01 09:10:00,
2013-04-01 05:15:00,31.3,23.3,29.85,NNW,333,2.0,3.0,72,0.00,,,0.00,Wunderground v.1.15,2013-04-01 09:15:00,
2013-04-01 05:25:00,31.1,22.8,29.85,NNW,332,3.0,6.0,71,0.00,,,0.00,Wunderground v.1.15,2013-04-01 09:25:00,
2013-04-01 05:30:00,31.1,21.8,29.86,NW,321,4.0,4.0,68,0.00,,,0.00,Wunderground v.1.15,2013-04-01 09:30:00,
2013-04-01 05:35:00,31.0,21.0,29.86,NW,314,4.0,6.0,66,0.00,,,0.00,Wunderground v.1.15,2013-04-01 09:35:00,
2013-04-01 05:40:00,30.8,20.0,29.86,NW,325,4.0,4.0,64,0.00,,,0.00,Wunderground v.1.15,2013-04-01 09:40:00,
2013-04-01 05:45:00,30.5,19.8,29.87,WNW,302,4.0,11.0,64,0.00,,,0.00,Wunderground v.1.15,2013-04-01 09:45:00,
2013-04-01 05:50:00,30.3,18.8,29.87,NW,308,5.0,6.0,62,0.00,,,0.00,Wunderground v.1.15,2013-04-01 09:50:00,
2013-04-01 06:00:00,29.8,18.7,29.88,NNW,341,4.0,4.0,63,0.00,,,0.00,Wunderground v.1.15,2013-04-01 10:00:00,
2013-04-01 06:05:00,29.7,18.6,29.88,NNE,14,4.0,4.0,63,0.00,,,0.00,Wunderground v.1.15,2013-04-01 10:05:00,
2013-04-01 06:10:00,29.4,18.7,29.88,NNW,331,3.0,3.0,64,0.00,,,0.00,Wunderground v.1.15,2013-04-01 10:10:00,
2013-04-01 06:15:00,29.3,19.0,29.89,West,276,1.0,3.0,65,0.00,,,0.00,Wunderground v.1.15,2013-04-01 10:15:00,
2013-04-01 06:20:00,29.0,18.7,29.89,NNW,341,1.0,2.0,65,0.00,,,0.00,Wunderground v.1.15,2013-04-01 10:20:00,
2013-04-01 06:30:00,28.7,18.8,29.90,NNW,333,1.0,2.0,66,0.00,,,0.00,Wunderground v.1.15,2013-04-01 10:30:00,
2013-04-01 06:35:00,28.6,18.3,29.90,NW,308,1.0,2.0,65,0.00,,,0.00,Wunderground v.1.15,2013-04-01 10:35:00,
2013-04-01 06:40:00,28.6,18.3,29.90,West,276,1.0,1.0,65,0.00,,,0.00,Wunderground v.1.15,2013-04-01 10:40:00,
2013-04-01 06:45:00,28.6,18.3,29.90,WNW,288,2.0,2.0,65,0.00,,,0.00,Wunderground v.1.15,2013-04-01 10:45:00,
2013-04-01 06:50:00,28.6,18.0,29.91,NW,309,2.0,2.0,64,0.00,,,0.00,Wunderground v.1.15,2013-04-01 10:50:00,
2013-04-01 07:00:00,28.7,17.7,29.91,West,276,4.0,4.0,63,0.00,,,0.00,Wunderground v.1.15,2013-04-01 11:00:00,
2013-04-01 07:05:00,28.5,17.9,29.91,WNW,285,3.0,4.0,64,0.00,,,0.00,Wunderground v.1.15,2013-04-01 11:05:00,
2013-04-01 07:10:00,28.3,17.7,29.92,West,278,2.0,2.0,64,0.00,,,0.00,Wunderground v.1.15,2013-04-01 11:10:00,
2013-04-01 07:20:00,28.1,17.5,29.92,WNW,291,2.0,2.0,64,0.00,,,0.00,Wunderground v.1.15,2013-04-01 11:20:00,
2013-04-01 07:30:00,28.1,16.7,29.92,West,263,2.0,2.0,62,0.00,,,0.00,Wunderground v.1.15,2013-04-01 11:30:00,
2013-04-01 07:35:00,28.4,16.7,29.92,WNW,283,3.0,3.0,61,0.00,,,0.00,Wunderground v.1.15,2013-04-01 11:35:00,
2013-04-01 07:40:00,28.6,16.5,29.93,WNW,295,3.0,3.0,60,0.00,,,0.00,Wunderground v.1.15,2013-04-01 11:40:00,
2013-04-01 07:50:00,29.0,16.4,29.94,WNW,285,3.0,3.0,59,0.00,,,0.00,Wunderground v.1.15,2013-04-01 11:50:00,
2013-04-01 08:00:00,29.2,17.0,29.94,West,276,2.0,2.0,60,0.00,,,0.00,Wunderground v.1.15,2013-04-01 12:00:00,
2013-04-01 08:05:00,29.4,16.8,29.94,NNE,26,2.0,8.0,59,0.00,,,0.00,Wunderground v.1.15,2013-04-01 12:05:00,
2013-04-01 08:10:00,29.5,16.9,29.94,West,276,3.0,3.0,59,0.00,,,0.00,Wunderground v.1.15,2013-04-01 12:10:00,
2013-04-01 08:20:00,29.8,17.2,29.95,WNW,301,3.0,3.0,59,0.00,,,0.00,Wunderground v.1.15,2013-04-01 12:20:00,
2013-04-01 08:25:00,29.9,16.9,29.95,West,267,3.0,3.0,58,0.00,,,0.00,Wunderground v.1.15,2013-04-01 12:25:00,
2013-04-01 08:30:00,30.1,17.1,29.95,WNW,284,3.0,5.0,58,0.00,,,0.00,Wunderground v.1.15,2013-04-01 12:30:00,
2013-04-01 08:35:00,30.1,16.3,29.95,WNW,292,5.0,6.0,56,0.00,,,0.00,Wunderground v.1.15,2013-04-01 12:35:00,
2013-04-01 08:40:00,30.4,16.6,29.95,WNW,294,5.0,5.0,56,0.00,,,0.00,Wunderground v.1.15,2013-04-01 12:40:00,
2013-04-01 08:45:00,30.6,15.9,29.96,NNW,343,4.0,7.0,54,0.00,,,0.00,Wunderground v.1.15,2013-04-01 12:45:00,
2013-04-01 08:55:00,31.0,16.3,29.96,WNW,289,4.0,4.0,54,0.00,,,0.00,Wunderground v.1.15,2013-04-01 12:55:00,
2013-04-01 09:00:00,31.2,15.2,29.96,NW,305,4.0,4.0,51,0.00,,,0.00,Wunderground v.1.15,2013-04-01 13:00:00,
2013-04-01 09:05:00,31.1,15.5,29.96,NW,312,4.0,8.0,52,0.00,,,0.00,Wunderground v.1.15,2013-04-01 13:05:00,
2013-04-01 09:10:00,31.2,15.2,29.97,NNE,20,5.0,5.0,51,0.00,,,0.00,Wunderground v.1.15,2013-04-01 13:10:00,
2013-04-01 09:15:00,31.3,15.7,29.97,NW,322,5.0,7.0,52,0.00,,,0.00,Wunderground v.1.15,2013-04-01 13:15:00,
2013-04-01 09:25:00,31.4,15.3,29.97,West,274,6.0,6.0,51,0.00,,,0.00,Wunderground v.1.15,2013-04-01 13:25:00,
2013-04-01 09:30:00,31.6,16.0,29.97,NNW,340,5.0,5.0,52,0.00,,,0.00,Wunderground v.1.15,2013-04-01 13:30:00,
2013-04-01 09:35:00,31.8,15.7,29.97,WNW,285,5.0,5.0,51,0.00,,,0.00,Wunderground v.1.15,2013-04-01 13:35:00,
2013-04-01 09:45:00,31.4,15.8,29.97,WNW,300,4.0,9.0,52,0.00,,,0.00,Wunderground v.1.15,2013-04-01 13:45:00,
2013-04-01 09:50:00,31.6,16.4,29.98,WNW,297,6.0,6.0,53,0.00,,,0.00,Wunderground v.1.15,2013-04-01 13:50:00,
2013-04-01 10:00:00,31.2,16.5,29.98,NW,322,5.0,5.0,54,0.00,,,0.00,Wunderground v.1.15,2013-04-01 14:00:00,
2013-04-01 10:05:00,31.6,16.4,29.98,NW,304,6.0,8.0,53,0.00,,,0.00,Wunderground v.1.15,2013-04-01 14:05:00,
2013-04-01 10:10:00,31.3,15.2,29.99,NNW,335,7.0,7.0,51,0.00,,,0.00,Wunderground v.1.15,2013-04-01 14:10:00,
2013-04-01 10:15:00,31.6,15.5,29.99,North,350,6.0,8.0,51,0.00,,,0.00,Wunderground v.1.15,2013-04-01 14:15:00,
2013-04-01 10:25:00,32.4,14.4,29.99,WNW,295,6.0,10.0,47,0.00,,,0.00,Wunderground v.1.15,2013-04-01 14:25:00,
2013-04-01 10:30:00,32.2,12.7,29.99,NW,309,8.0,14.0,44,0.00,,,0.00,Wunderground v.1.15,2013-04-01 14:30:00,
2013-04-01 10:40:00,32.8,13.8,29.99,West,273,6.0,6.0,45,0.00,,,0.00,Wunderground v.1.15,2013-04-01 14:40:00,
2013-04-01 10:45:00,32.9,13.9,29.99,NW,326,6.0,14.0,45,0.00,,,0.00,Wunderground v.1.15,2013-04-01 14:45:00,
2013-04-01 10:55:00,33.1,14.5,30.00,West,267,6.0,6.0,46,0.00,,,0.00,Wunderground v.1.15,2013-04-01 14:55:00,
2013-04-01 11:00:00,33.1,14.0,30.00,NNE,16,7.0,8.0,45,0.00,,,0.00,Wunderground v.1.15,2013-04-01 15:00:00,
2013-04-01 11:10:00,34.0,14.9,30.00,NW,325,4.0,4.0,45,0.00,,,0.00,Wunderground v.1.15,2013-04-01 15:10:00,
2013-04-01 11:15:00,33.9,15.3,30.00,West,266,4.0,5.0,46,0.00,,,0.00,Wunderground v.1.15,2013-04-01 15:15:00,
2013-04-01 11:20:00,34.1,15.9,30.00,WNW,291,4.0,4.0,47,0.00,,,0.00,Wunderground v.1.15,2013-04-01 15:20:00,
2013-04-01 11:25:00,34.1,15.5,30.01,WNW,297,4.0,6.0,46,0.00,,,0.00,Wunderground v.1.15,2013-04-01 15:25:00,
2013-04-01 11:30:00,33.6,15.0,30.01,WNW,287,6.0,6.0,46,0.00,,,0.00,Wunderground v.1.15,2013-04-01 15:30:00,
2013-04-01 11:35:00,34.3,15.6,30.01,NNW,341,6.0,8.0,46,0.00,,,0.00,Wunderground v.1.15,2013-04-01 15:35:00,
2013-04-01 11:45:00,33.7,13.5,30.01,NW,305,6.0,7.0,43,0.00,,,0.00,Wunderground v.1.15,2013-04-01 15:45:00,
2013-04-01 11:50:00,33.2,15.1,30.01,WSW,240,5.0,6.0,47,0.00,,,0.00,Wunderground v.1.15,2013-04-01 15:50:00,
2013-04-01 11:55:00,34.3,15.6,30.01,WNW,285,5.0,6.0,46,0.00,,,0.00,Wunderground v.1.15,2013-04-01 15:55:00,
2013-04-01 12:00:00,34.7,15.0,30.01,NW,319,4.0,13.0,44,0.00,,,0.00,Wunderground v.1.15,2013-04-01 16:00:00,
2013-04-01 12:05:00,35.0,15.3,30.01,WNW,283,4.0,13.0,44,0.00,,,0.00,Wunderground v.1.15,2013-04-01 16:05:00,
2013-04-01 12:15:00,35.3,16.0,30.02,West,276,4.0,4.0,45,0.00,,,0.00,Wunderground v.1.15,2013-04-01 16:15:00,
2013-04-01 12:20:00,34.6,15.9,30.02,West,267,4.0,5.0,46,0.00,,,0.00,Wunderground v.1.15,2013-04-01 16:20:00,
2013-04-01 12:25:00,34.2,15.0,30.02,West,277,4.0,6.0,45,0.00,,,0.00,Wunderground v.1.15,2013-04-01 16:25:00,
2013-04-01 12:30:00,33.6,15.5,30.02,NE,36,4.0,4.0,47,0.00,,,0.00,Wunderground v.1.15,2013-04-01 16:30:00,
2013-04-01 12:40:00,34.7,15.0,30.02,WNW,302,4.0,4.0,44,0.00,,,0.00,Wunderground v.1.15,2013-04-01 16:40:00,
2013-04-01 12:45:00,34.6,14.9,30.02,North,5,4.0,5.0,44,0.00,,,0.00,Wunderground v.1.15,2013-04-01 16:45:00,
2013-04-01 12:50:00,35.3,15.5,30.02,WSW,240,5.0,5.0,44,0.00,,,0.00,Wunderground v.1.15,2013-04-01 16:50:00,
2013-04-01 12:55:00,36.3,15.4,30.02,WSW,249,4.0,5.0,42,0.00,,,0.00,Wunderground v.1.15,2013-04-01 16:55:00,
2013-04-01 13:00:00,35.7,13.7,30.02,NW,326,4.0,4.0,40,0.00,,,0.00,Wunderground v.1.15,2013-04-01 17:00:00,
2013-04-01 13:10:00,35.1,14.3,30.02,SW,214,4.0,4.0,42,0.00,,,0.00,Wunderground v.1.15,2013-04-01 17:10:00,
2013-04-01 13:15:00,34.9,14.1,30.02,WNW,290,4.0,4.0,42,0.00,,,0.00,Wunderground v.1.15,2013-04-01 17:15:00,
2013-04-01 13:20:00,35.9,15.5,30.02,WNW,285,4.0,4.0,43,0.00,,,0.00,Wunderground v.1.15,2013-04-01 17:20:00,
2013-04-01 13:25:00,36.9,14.8,30.02,NNW,329,4.0,4.0,40,0.00,,,0.00,Wunderground v.1.15,2013-04-01 17:25:00,
2013-04-01 13:35:00,36.3,12.5,30.02,WNW,301,5.0,6.0,37,0.00,,,0.00,Wunderground v.1.15,2013-04-01 17:35:00,
2013-04-01 13:40:00,36.2,13.0,30.02,NW,306,5.0,6.0,38,0.00,,,0.00,Wunderground v.1.15,2013-04-01 17:40:00,
2013-04-01 13:45:00,36.5,13.9,30.02,West,277,5.0,9.0,39,0.00,,,0.00,Wunderground v.1.15,2013-04-01 17:45:00,
2013-04-01 13:50:00,35.6,13.0,30.02,NW,314,6.0,8.0,39,0.00,,,0.00,Wunderground v.1.15,2013-04-01 17:50:00,
2013-04-01 13:55:00,36.1,12.9,30.02,West,281,6.0,8.0,38,0.00,,,0.00,Wunderground v.1.15,2013-04-01 17:55:00,
2013-04-01 14:05:00,36.3,11.9,30.02,West,266,5.0,5.0,36,0.00,,,0.00,Wunderground v.1.15,2013-04-01 18:05:00,
2013-04-01 14:10:00,36.6,13.9,30.02,WNW,293,5.0,10.0,39,0.00,,,0.00,Wunderground v.1.15,2013-04-01 18:10:00,
2013-04-01 14:15:00,37.8,13.8,30.01,SW,232,4.0,10.0,37,0.00,,,0.00,Wunderground v.1.15,2013-04-01 18:15:00,
2013-04-01 14:25:00,37.6,11.7,30.01,West,274,5.0,8.0,34,0.00,,,0.00,Wunderground v.1.15,2013-04-01 18:25:00,
2013-04-01 14:35:00,36.1,12.9,30.01,WNW,296,6.0,6.0,38,0.00,,,0.00,Wunderground v.1.15,2013-04-01 18:35:00,
2013-04-01 14:40:00,36.1,12.3,30.02,NW,311,5.0,5.0,37,0.00,,,0.00,Wunderground v.1.15,2013-04-01 18:40:00,
2013-04-01 14:45:00,36.8,12.9,30.02,West,280,5.0,5.0,37,0.00,,,0.00,Wunderground v.1.15,2013-04-01 18:45:00,
2013-04-01 14:50:00,37.3,12.1,30.02,West,264,6.0,6.0,35,0.00,,,0.00,Wunderground v.1.15,2013-04-01 18:50:00,
2013-04-01 15:00:00,37.8,13.2,30.01,West,279,5.0,5.0,36,0.00,,,0.00,Wunderground v.1.15,2013-04-01 19:00:00,
2013-04-01 15:10:00,37.5,11.6,30.02,WNW,288,5.0,5.0,34,0.00,,,0.00,Wunderground v.1.15,2013-04-01 19:10:00,
2013-04-01 15:15:00,37.2,12.0,30.02,NW,304,6.0,7.0,35,0.00,,,0.00,Wunderground v.1.15,2013-04-01 19:15:00,
2013-04-01 15:20:00,36.9,11.8,30.02,WNW,300,5.0,5.0,35,0.00,,,0.00,Wunderground v.1.15,2013-04-01 19:20:00,
2013-04-01 15:30:00,39.0,13.6,30.02,West,276,5.0,5.0,35,0.00,,,0.00,Wunderground v.1.15,2013-04-01 19:30:00,
2013-04-01 15:35:00,39.3,12.6,30.02,WNW,293,5.0,5.0,33,0.00,,,0.00,Wunderground v.1.15,2013-04-01 19:35:00,
2013-04-01 15:40:00,39.9,13.1,30.02,West,273,4.0,4.0,33,0.00,,,0.00,Wunderground v.1.15,2013-04-01 19:40:00,
2013-04-01 15:45:00,39.5,13.4,30.02,WNW,283,4.0,9.0,34,0.00,,,0.00,Wunderground v.1.15,2013-04-01 19:45:00,
2013-04-01 15:50:00,39.2,13.1,30.02,NW,316,6.0,6.0,34,0.00,,,0.00,Wunderground v.1.15,2013-04-01 19:50:00,
2013-04-01 15:55:00,39.4,13.3,30.02,NNW,347,5.0,6.0,34,0.00,,,0.00,Wunderground v.1.15,2013-04-01 19:55:00,
2013-04-01 16:00:00,38.1,12.2,30.02,NNW,340,5.0,7.0,34,0.00,,,0.00,Wunderground v.1.15,2013-04-01 20:00:00,
2013-04-01 16:10:00,36.9,13.0,30.02,West,274,5.0,5.0,37,0.00,,,0.00,Wunderground v.1.15,2013-04-01 20:10:00,
2013-04-01 16:15:00,36.9,13.0,30.02,West,266,4.0,5.0,37,0.00,,,0.00,Wunderground v.1.15,2013-04-01 20:15:00,
2013-04-01 16:20:00,36.5,12.0,30.02,WNW,295,4.0,4.0,36,0.00,,,0.00,Wunderground v.1.15,2013-04-01 20:20:00,
2013-04-01 16:25:00,36.3,12.5,30.02,NNW,347,5.0,5.0,37,0.00,,,0.00,Wunderground v.1.15,2013-04-01 20:25:00,
2013-04-01 16:30:00,36.3,12.5,30.03,SSE,147,5.0,5.0,37,0.00,,,0.00,Wunderground v.1.15,2013-04-01 20:30:00,
2013-04-01 16:40:00,36.9,12.4,30.03,West,264,5.0,5.0,36,0.00,,,0.00,Wunderground v.1.15,2013-04-01 20:40:00,
2013-04-01 16:45:00,36.8,12.9,30.03,NW,309,4.0,7.0,37,0.00,,,0.00,Wunderground v.1.15,2013-04-01 20:45:00,
2013-04-01 16:50:00,36.2,11.8,30.03,WNW,295,5.0,5.0,36,0.00,,,0.00,Wunderground v.1.15,2013-04-01 20:50:00,
2013-04-01 16:55:00,35.8,12.6,30.03,WNW,294,6.0,7.0,38,0.00,,,0.00,Wunderground v.1.15,2013-04-01 20:55:00,
2013-04-01 17:00:00,35.9,12.7,30.03,West,280,6.0,6.0,38,0.00,,,0.00,Wunderground v.1.15,2013-04-01 21:00:00,
2013-04-01 17:10:00,36.5,13.3,30.03,NNW,335,4.0,4.0,38,0.00,,,0.00,Wunderground v.1.15,2013-04-01 21:10:00,
2013-04-01 17:15:00,36.2,13.6,30.03,NW,322,4.0,6.0,39,0.00,,,0.00,Wunderground v.1.15,2013-04-01 21:15:00,
2013-04-01 17:20:00,36.5,13.9,30.04,WNW,301,4.0,4.0,39,0.00,,,0.00,Wunderground v.1.15,2013-04-01 21:20:00,
2013-04-01 17:25:00,36.2,13.0,30.03,NNW,338,4.0,4.0,38,0.00,,,0.00,Wunderground v.1.15,2013-04-01 21:25:00,
2013-04-01 17:30:00,36.6,13.4,30.04,NW,310,4.0,4.0,38,0.00,,,0.00,Wunderground v.1.15,2013-04-01 21:30:00,
2013-04-01 17:40:00,36.2,13.0,30.04,NNW,340,5.0,5.0,38,0.00,,,0.00,Wunderground v.1.15,2013-04-01 21:40:00,
2013-04-01 17:45:00,36.1,12.9,30.04,WNW,300,4.0,5.0,38,0.00,,,0.00,Wunderground v.1.15,2013-04-01 21:45:00,
2013-04-01 17:50:00,35.6,13.6,30.04,WNW,300,4.0,4.0,40,0.00,,,0.00,Wunderground v.1.15,2013-04-01 21:50:00,
2013-04-01 17:55:00,35.6,12.5,30.05,WNW,291,5.0,7.0,38,0.00,,,0.00,Wunderground v.1.15,2013-04-01 21:55:00,
2013-04-01 18:00:00,35.7,14.3,30.05,WNW,284,5.0,5.0,41,0.00,,,0.00,Wunderground v.1.15,2013-04-01 22:00:00,
2013-04-01 18:10:00,34.9,14.1,30.05,WNW,283,4.0,4.0,42,0.00,,,0.00,Wunderground v.1.15,2013-04-01 22:10:00,
2013-04-01 18:15:00,34.7,13.9,30.05,WNW,294,4.0,4.0,42,0.00,,,0.00,Wunderground v.1.15,2013-04-01 22:15:00,
2013-04-01 18:20:00,34.8,14.0,30.05,WNW,284,4.0,4.0,42,0.00,,,0.00,Wunderground v.1.15,2013-04-01 22:20:00,
2013-04-01 18:30:00,34.5,12.6,30.06,WNW,284,4.0,4.0,40,0.00,,,0.00,Wunderground v.1.15,2013-04-01 22:30:00,
2013-04-01 18:35:00,34.3,12.4,30.06,NW,308,3.0,4.0,40,0.00,,,0.00,Wunderground v.1.15,2013-04-01 22:35:00,
2013-04-01 18:40:00,34.2,13.5,30.06,WNW,293,3.0,4.0,42,0.00,,,0.00,Wunderground v.1.15,2013-04-01 22:40:00,
2013-04-01 18:45:00,33.9,14.3,30.06,NW,309,4.0,8.0,44,0.00,,,0.00,Wunderground v.1.15,2013-04-01 22:45:00,
2013-04-01 18:50:00,33.5,14.9,30.06,NW,312,5.0,8.0,46,0.00,,,0.00,Wunderground v.1.15,2013-04-01 22:50:00,
2013-04-01 19:00:00,33.3,12.6,30.07,West,267,5.0,5.0,42,0.00,,,0.00,Wunderground v.1.15,2013-04-01 23:00:00,
2013-04-01 19:05:00,33.7,13.5,30.06,WNW,288,5.0,9.0,43,0.00,,,0.00,Wunderground v.1.15,2013-04-01 23:05:00,
2013-04-01 19:10:00,33.2,13.1,30.07,WNW,284,4.0,4.0,43,0.00,,,0.00,Wunderground v.1.15,2013-04-01 23:10:00,
2013-04-01 19:15:00,32.9,13.9,30.07,WNW,297,5.0,5.0,45,0.00,,,0.00,Wunderground v.1.15,2013-04-01 23:15:00,
2013-04-01 19:20:00,32.5,13.5,30.08,West,262,5.0,5.0,45,0.00,,,0.00,Wunderground v.1.15,2013-04-01 23:20:00,
2013-04-01 19:30:00,32.0,13.5,30.08,West,281,4.0,4.0,46,0.00,,,0.00,Wunderground v.1.15,2013-04-01 23:30:00,
2013-04-01 19:35:00,31.8,13.8,30.08,West,276,3.0,4.0,47,0.00,,,0.00,Wunderground v.1.15,2013-04-01 23:35:00,
2013-04-01 19:40:00,31.6,12.7,30.08,WNW,302,4.0,4.0,45,0.00,,,0.00,Wunderground v.1.15,2013-04-01 23:40:00,
2013-04-01 19:45:00,31.6,13.2,30.08,WNW,297,4.0,4.0,46,0.00,,,0.00,Wunderground v.1.15,2013-04-01 23:45:00,
2013-04-01 19:50:00,31.5,13.1,30.08,West,279,4.0,4.0,46,0.00,,,0.00,Wunderground v.1.15,2013-04-01 23:50:00,
2013-04-01 20:00:00,31.2,13.8,30.08,West,274,4.0,4.0,48,0.00,,,0.00,Wunderground v.1.15,2013-04-02 00:00:00,
2013-04-01 20:05:00,31.1,13.7,30.09,NW,305,4.0,5.0,48,0.00,,,0.00,Wunderground v.1.15,2013-04-02 00:05:00,
2013-04-01 20:10:00,30.9,14.0,30.09,West,270,4.0,6.0,49,0.00,,,0.00,Wunderground v.1.15,2013-04-02 00:10:00,
2013-04-01 20:20:00,30.7,13.8,30.10,WNW,289,4.0,4.0,49,0.00,,,0.00,Wunderground v.1.15,2013-04-02 00:20:00,
2013-04-01 20:25:00,30.5,14.0,30.10,West,276,4.0,4.0,50,0.00,,,0.00,Wunderground v.1.15,2013-04-02 00:25:00,
2013-04-01 20:30:00,30.3,14.3,30.10,WSW,258,3.0,3.0,51,0.00,,,0.00,Wunderground v.1.15,2013-04-02 00:30:00,
2013-04-01 20:35:00,30.1,14.1,30.10,WNW,293,3.0,3.0,51,0.00,,,0.00,Wunderground v.1.15,2013-04-02 00:35:00,
2013-04-01 20:40:00,30.1,13.7,30.10,West,262,4.0,4.0,50,0.00,,,0.00,Wunderground v.1.15,2013-04-02 00:40:00,
2013-04-01 20:50:00,29.9,13.9,30.11,WNW,295,4.0,4.0,51,0.00,,,0.00,Wunderground v.1.15,2013-04-02 00:50:00,
2013-04-01 21:00:00,29.6,13.7,30.11,West,280,3.0,3.0,51,0.00,,,0.00,Wunderground v.1.15,2013-04-02 01:00:00,
2013-04-01 21:05:00,29.5,14.0,30.11,NW,312,3.0,3.0,52,0.00,,,0.00,Wunderground v.1.15,2013-04-02 01:05:00,
2013-04-01 21:10:00,29.3,14.7,30.11,WNW,288,3.0,3.0,54,0.00,,,0.00,Wunderground v.1.15,2013-04-02 01:10:00,
2013-04-01 21:20:00,29.3,15.5,30.12,West,277,2.0,4.0,56,0.00,,,0.00,Wunderground v.1.15,2013-04-02 01:20:00,
2013-04-01 21:25:00,29.2,16.2,30.12,NW,304,3.0,4.0,58,0.00,,,0.00,Wunderground v.1.15,2013-04-02 01:25:00,
2013-04-01 21:30:00,29.2,15.8,30.12,WNW,285,3.0,3.0,57,0.00,,,0.00,Wunderground v.1.15,2013-04-02 01:30:00,
2013-04-01 21:35:00,29.1,15.7,30.12,NNW,327,3.0,3.0,57,0.00,,,0.00,Wunderground v.1.15,2013-04-02 01:35:00,
2013-04-01 21:45:00,28.9,15.2,30.13,NW,306,3.0,7.0,56,0.00,,,0.00,Wunderground v.1.15,2013-04-02 01:45:00,
2013-04-01 21:50:00,28.8,15.5,30.12,WNW,294,3.0,3.0,57,0.00,,,0.00,Wunderground v.1.15,2013-04-02 01:50:00,
2013-04-01 21:55:00,28.7,16.2,30.12,NNW,338,3.0,8.0,59,0.00,,,0.00,Wunderground v.1.15,2013-04-02 01:55:00,
2013-04-01 22:00:00,28.6,16.1,30.13,SW,236,2.0,2.0,59,0.00,,,0.00,Wunderground v.1.15,2013-04-02 02:00:00,
2013-04-01 22:10:00,28.3,15.0,30.13,WNW,285,2.0,2.0,57,0.00,,,0.00,Wunderground v.1.15,2013-04-02 02:10:00,
2013-04-01 22:15:00,28.2,14.5,30.13,West,281,2.0,2.0,56,0.00,,,0.00,Wunderground v.1.15,2013-04-02 02:15:00,
2013-04-01 22:20:00,28.1,14.4,30.13,WNW,290,2.0,2.0,56,0.00,,,0.00,Wunderground v.1.15,2013-04-02 02:20:00,
2013-04-01 22:25:00,28.0,13.9,30.13,NNW,347,2.0,3.0,55,0.00,,,0.00,Wunderground v.1.15,2013-04-02 02:25:00,
2013-04-01 22:30:00,28.0,13.5,30.13,WNW,297,3.0,3.0,54,0.00,,,0.00,Wunderground v.1.15,2013-04-02 02:30:00,
2013-04-01 22:40:00,28.0,13.5,30.13,West,277,2.0,2.0,54,0.00,,,0.00,Wunderground v.1.15,2013-04-02 02:40:00,
2013-04-01 22:50:00,27.8,12.9,30.13,WNW,300,2.0,2.0,53,0.00,,,0.00,Wunderground v.1.15,2013-04-02 02:50:00,
2013-04-01 22:55:00,27.8,12.9,30.13,WNW,282,2.0,2.0,53,0.00,,,0.00,Wunderground v.1.15,2013-04-02 02:55:00,
2013-04-01 23:00:00,27.8,12.9,30.13,WNW,300,2.0,3.0,53,0.00,,,0.00,Wunderground v.1.15,2013-04-02 03:00:00,
2013-04-01 23:10:00,27.5,13.4,30.13,WNW,289,1.0,1.0,55,0.00,,,0.00,Wunderground v.1.15,2013-04-02 03:10:00,
2013-04-01 23:15:00,27.3,13.7,30.13,West,266,1.0,1.0,56,0.00,,,0.00,Wunderground v.1.15,2013-04-02 03:15:00,
2013-04-01 23:20:00,27.2,13.6,30.13,WNW,293,1.0,1.0,56,0.00,,,0.00,Wunderground v.1.15,2013-04-02 03:20:00,
2013-04-01 23:25:00,27.0,13.4,30.13,WSW,250,1.0,3.0,56,0.00,,,0.00,Wunderground v.1.15,2013-04-02 03:25:00,
2013-04-01 23:30:00,27.2,13.1,30.13,WNW,288,2.0,2.0,55,0.00,,,0.00,Wunderground v.1.15,2013-04-02 03:30:00,
2013-04-01 23:40:00,27.3,13.7,30.13,WNW,298,2.0,4.0,56,0.00,,,0.00,Wunderground v.1.15,2013-04-02 03:40:00,
2013-04-01 23:45:00,27.3,13.7,30.13,WNW,283,3.0,4.0,56,0.00,,,0.00,Wunderground v.1.15,2013-04-02 03:45:00,
2013-04-01 23:50:00,27.1,13.9,30.13,WNW,284,2.0,2.0,57,0.00,,,0.00,Wunderground v.1.15,2013-04-02 03:50:00,
2013-04-01 23:55:00,26.9,13.7,30.13,NW,309,2.0,3.0,57,0.00,,,0.00,Wunderground v.1.15,2013-04-02 03:55:00,